Terminal Aerodrome Forecast
Issued by NWS

Home | Current Version | Previous Version | Text Only | Print | Product List | Glossary On
Versions: 1 2 3 4 5 6 7 8 9 10 11 12
000
FTUS43 KAPX 200526
TAFMBL
TAF
KMBL 200526Z 2006/2106 10004KT P6SM FEW250 WS015/24030KT
     FM201200 17005KT P6SM FEW250
     FM201700 20010G16KT P6SM FEW250
     FM202200 19006KT P6SM FEW250
     FM210000 18008KT P6SM FEW250 WS015/21035KT=

USA.gov is the U.S. government's official web portal to all federal, state and local government web resources and services.